Time;durP1;ratioP1;P1;durP2;ratioP2;P2;SDS_P1;SDS_P2;PMS_P1;PMS_P2;Temp;Humidity;BMP_temperature;BMP_pressure;BME280_temperature;BME280_humidity;BME280_pressure;Samples;Min_cycle;Max_cycle;Signal;HPM_P1;HPM_P2
2022/03/10 00:01:42;;;;;;;10.20;6.88;;;22.50;37.20;;;;;;6141347;28;81961;-74
2022/03/10 00:04:42;;;;;;;9.80;6.93;;;22.50;37.40;;;;;;6140195;28;80638;-75
2022/03/10 00:07:43;;;;;;;9.27;6.20;;;22.40;37.30;;;;;;6146731;28;80272;-75
2022/03/10 00:10:44;;;;;;;11.32;7.20;;;22.40;37.20;;;;;;6149670;28;80372;-77
2022/03/10 00:13:44;;;;;;;9.20;6.60;;;22.40;37.30;;;;;;6143432;28;81646;-76
2022/03/10 00:16:45;;;;;;;10.98;5.97;;;22.40;37.30;;;;;;6137273;28;80533;-76
2022/03/10 00:19:45;;;;;;;11.57;7.00;;;22.40;37.30;;;;;;6140486;28;80860;-74
2022/03/10 00:22:46;;;;;;;9.70;6.30;;;22.40;37.50;;;;;;6143703;28;80311;-73
2022/03/10 00:25:46;;;;;;;9.90;6.60;;;22.40;37.50;;;;;;6144757;28;80448;-74
2022/03/10 00:28:47;;;;;;;12.10;6.80;;;22.30;37.50;;;;;;6135041;28;81116;-72
2022/03/10 00:31:48;;;;;;;9.25;6.57;;;22.30;37.70;;;;;;6136501;28;80648;-72
2022/03/10 00:34:48;;;;;;;9.20;6.35;;;22.30;37.80;;;;;;6135452;28;80212;-72
2022/03/10 00:37:49;;;;;;;10.38;6.65;;;22.30;37.60;;;;;;6140489;28;80550;-72
2022/03/10 00:40:50;;;;;;;7.25;5.65;;;22.30;37.50;;;;;;6140900;28;81386;-73
2022/03/10 00:43:51;;;;;;;9.65;6.18;;;22.30;37.40;;;;;;6125601;28;80658;-73
2022/03/10 00:46:51;;;;;;;8.75;6.07;;;22.30;37.20;;;;;;6121386;28;80537;-73
2022/03/10 00:49:52;;;;;;;8.68;6.10;;;22.30;37.10;;;;;;6139958;28;81384;-73
2022/03/10 00:52:52;;;;;;;8.00;5.97;;;22.30;37.10;;;;;;6137323;28;80429;-73
2022/03/10 00:55:53;;;;;;;8.85;6.30;;;22.30;37.00;;;;;;6141140;28;80586;-73
2022/03/10 00:58:53;;;;;;;10.70;7.00;;;22.30;37.00;;;;;;6135717;28;80819;-73
2022/03/10 01:01:54;;;;;;;10.32;6.50;;;22.30;36.90;;;;;;6139904;28;80781;-74
2022/03/10 01:04:54;;;;;;;9.23;5.97;;;22.30;36.90;;;;;;6148009;28;80794;-74
2022/03/10 01:07:55;;;;;;;10.30;6.00;;;22.30;36.90;;;;;;6142315;28;81595;-74
2022/03/10 01:10:56;;;;;;;8.73;6.32;;;22.30;36.90;;;;;;6142526;28;81093;-74
2022/03/10 01:13:57;;;;;;;9.07;5.63;;;22.30;36.80;;;;;;6140786;28;84094;-73
2022/03/10 01:16:58;;;;;;;7.43;5.93;;;22.30;36.80;;;;;;6139102;28;80652;-74
2022/03/10 01:19:58;;;;;;;8.05;6.05;;;22.30;36.80;;;;;;6136850;28;80349;-74
2022/03/10 01:22:59;;;;;;;9.85;6.60;;;22.30;36.80;;;;;;6134469;28;80698;-75
2022/03/10 01:26:00;;;;;;;8.95;5.00;;;22.30;36.70;;;;;;6137595;28;80840;-75
2022/03/10 01:29:00;;;;;;;9.45;6.05;;;22.30;36.70;;;;;;6134443;28;80484;-75
2022/03/10 01:32:01;;;;;;;9.10;6.00;;;22.30;36.70;;;;;;6131492;28;80532;-75
2022/03/10 01:35:02;;;;;;;9.00;5.65;;;22.30;36.90;;;;;;6132948;28;80524;-74
2022/03/10 01:38:02;;;;;;;8.73;5.57;;;22.30;37.00;;;;;;6132419;28;81264;-75
2022/03/10 01:41:03;;;;;;;8.23;5.30;;;22.20;37.10;;;;;;6133768;28;80370;-74
2022/03/10 01:44:03;;;;;;;8.23;5.38;;;22.30;37.10;;;;;;6134106;28;81028;-75
2022/03/10 01:47:05;;;;;;;8.75;5.78;;;22.30;37.10;;;;;;6132037;28;80664;-75
2022/03/10 01:50:06;;;;;;;8.43;6.07;;;22.20;37.20;;;;;;6134193;28;81484;-75
2022/03/10 01:53:07;;;;;;;8.77;5.70;;;22.20;37.20;;;;;;6133542;28;81672;-75
2022/03/10 01:56:07;;;;;;;9.30;5.80;;;22.20;37.20;;;;;;6132858;28;80907;-75
2022/03/10 01:59:08;;;;;;;8.20;5.22;;;22.20;37.30;;;;;;6138415;28;81831;-75
2022/03/10 02:02:08;;;;;;;7.32;5.20;;;22.20;37.30;;;;;;6141090;28;80644;-76
2022/03/10 02:05:09;;;;;;;7.15;5.00;;;22.20;37.30;;;;;;6141372;28;80909;-74
2022/03/10 02:11:29;;;;;;;6.85;5.22;;;22.20;37.30;;;;;;6139118;28;85087;-72
2022/03/10 02:17:50;;;;;;;5.93;4.60;;;22.20;37.30;;;;;;6146766;28;80832;-72
2022/03/10 02:20:50;;;;;;;5.30;4.20;;;22.20;37.40;;;;;;6138198;28;80564;-71
2022/03/10 02:23:51;;;;;;;7.10;5.15;;;22.20;37.50;;;;;;6140958;28;80622;-74
2022/03/10 02:26:51;;;;;;;6.00;4.10;;;22.10;37.50;;;;;;6143188;28;81141;-73
2022/03/10 02:29:52;;;;;;;6.28;4.70;;;22.20;37.50;;;;;;6133563;28;81604;-73
2022/03/10 02:32:53;;;;;;;7.25;4.82;;;22.20;37.60;;;;;;6139609;28;81087;-73
2022/03/10 02:35:54;;;;;;;6.70;3.97;;;22.10;37.90;;;;;;6141971;28;80788;-74
2022/03/10 02:38:54;;;;;;;6.60;4.20;;;22.10;37.10;;;;;;6141150;28;81961;-74
2022/03/10 02:41:55;;;;;;;6.03;4.47;;;22.10;37.00;;;;;;6139675;28;81013;-73
2022/03/10 02:44:56;;;;;;;6.50;4.20;;;22.10;36.90;;;;;;6133151;28;80459;-73
2022/03/10 02:47:57;;;;;;;5.38;3.90;;;22.10;36.80;;;;;;6139615;28;81419;-73
2022/03/10 02:50:57;;;;;;;6.22;4.22;;;22.20;36.90;;;;;;6134138;28;81752;-73
2022/03/10 02:53:58;;;;;;;6.50;4.13;;;22.10;36.90;;;;;;6130947;28;80371;-73
2022/03/10 02:56:59;;;;;;;6.47;4.63;;;22.10;36.90;;;;;;6149589;28;80092;-74
2022/03/10 03:00:03;;;;;;;5.30;3.75;;;22.10;36.90;;;;;;6139730;28;81918;-75
2022/03/10 03:03:03;;;;;;;5.60;3.92;;;22.10;36.80;;;;;;6135909;28;83456;-75
2022/03/10 03:06:04;;;;;;;7.50;4.18;;;22.10;36.80;;;;;;6136418;28;81547;-75
2022/03/10 03:09:04;;;;;;;6.32;3.60;;;22.10;36.80;;;;;;6135199;28;80402;-76
2022/03/10 03:12:05;;;;;;;5.72;3.75;;;22.10;36.70;;;;;;6144018;28;80514;-76
2022/03/10 03:15:06;;;;;;;8.02;4.38;;;22.10;36.90;;;;;;6135182;28;80742;-75
2022/03/10 03:18:06;;;;;;;4.00;3.45;;;22.10;36.70;;;;;;6144824;28;80664;-76
2022/03/10 03:21:07;;;;;;;5.32;3.50;;;22.10;37.00;;;;;;6139830;28;81089;-76
2022/03/10 03:24:07;;;;;;;5.20;3.00;;;22.10;36.80;;;;;;6138353;28;84052;-77
2022/03/10 03:27:08;;;;;;;5.30;3.55;;;22.10;36.80;;;;;;6135037;28;80731;-77
2022/03/10 03:30:08;;;;;;;3.22;2.75;;;22.10;36.90;;;;;;6137284;28;80831;-75
2022/03/10 03:33:09;;;;;;;5.22;3.30;;;22.10;37.00;;;;;;6135149;28;80543;-74
2022/03/10 03:36:09;;;;;;;4.72;3.00;;;22.10;36.90;;;;;;6137605;28;80129;-74
2022/03/10 03:39:10;;;;;;;5.50;2.92;;;22.10;37.10;;;;;;6136781;28;80400;-74
2022/03/10 03:42:11;;;;;;;3.95;3.00;;;22.10;37.00;;;;;;6132658;28;80555;-74
2022/03/10 03:45:11;;;;;;;4.28;2.92;;;22.10;37.00;;;;;;6132381;28;81020;-73
2022/03/10 03:48:12;;;;;;;4.18;2.97;;;22.00;36.90;;;;;;6131328;28;80651;-74
2022/03/10 03:51:12;;;;;;;5.13;3.08;;;22.00;36.90;;;;;;6123806;28;80514;-73
2022/03/10 03:54:13;;;;;;;4.63;3.00;;;22.00;36.90;;;;;;6135585;28;80690;-71
2022/03/10 03:57:13;;;;;;;3.38;2.50;;;22.00;36.90;;;;;;6134794;28;80902;-73
2022/03/10 04:00:18;;;;;;;5.32;3.00;;;22.00;36.80;;;;;;6135841;28;80433;-73
2022/03/10 04:03:19;;;;;;;3.65;2.63;;;22.00;36.90;;;;;;6135948;28;80913;-72
2022/03/10 04:06:20;;;;;;;4.45;3.28;;;22.00;36.90;;;;;;6133961;28;80360;-73
2022/03/10 04:09:20;;;;;;;5.13;3.30;;;22.00;36.90;;;;;;6144175;28;81917;-72
2022/03/10 04:12:21;;;;;;;5.63;2.95;;;22.00;36.90;;;;;;6142193;28;80902;-71
2022/03/10 04:15:21;;;;;;;4.07;2.90;;;22.00;37.20;;;;;;6151924;28;80398;-73
2022/03/10 04:18:22;;;;;;;4.95;2.80;;;22.00;36.80;;;;;;6141267;28;82571;-74
2022/03/10 04:21:22;;;;;;;3.83;2.63;;;22.10;36.30;;;;;;6140632;28;81613;-74
2022/03/10 04:24:23;;;;;;;5.13;2.83;;;22.10;36.00;;;;;;6139169;28;81374;-74
2022/03/10 04:27:23;;;;;;;3.70;2.97;;;22.10;35.70;;;;;;6134289;28;80336;-72
2022/03/10 04:30:24;;;;;;;4.95;3.38;;;22.20;35.40;;;;;;6141599;28;81262;-72
2022/03/10 04:33:24;;;;;;;4.30;3.05;;;22.20;35.00;;;;;;6131310;28;80467;-73
2022/03/10 04:36:25;;;;;;;6.13;3.05;;;22.30;34.80;;;;;;6134364;28;80210;-73
2022/03/10 04:39:25;;;;;;;5.50;3.03;;;22.30;34.60;;;;;;6118104;28;80581;-73
2022/03/10 04:42:27;;;;;;;3.83;2.50;;;22.40;34.40;;;;;;6129530;28;80453;-71
2022/03/10 04:45:28;;;;;;;7.25;4.00;;;22.40;34.30;;;;;;6122866;28;80512;-70
2022/03/10 04:48:28;;;;;;;3.50;2.78;;;22.50;34.10;;;;;;6133994;28;80268;-71
2022/03/10 04:51:29;;;;;;;4.25;3.25;;;22.50;33.90;;;;;;6139049;28;80566;-70
2022/03/10 04:54:29;;;;;;;5.65;3.30;;;22.50;33.70;;;;;;6144697;28;80808;-71
2022/03/10 04:57:30;;;;;;;5.72;3.10;;;22.60;34.40;;;;;;6135636;28;80450;-71
2022/03/10 05:00:30;;;;;;;4.93;3.50;;;22.60;34.20;;;;;;6135638;28;80214;-72
2022/03/10 05:03:31;;;;;;;4.63;3.05;;;22.70;34.30;;;;;;6137027;28;81510;-74
2022/03/10 05:06:32;;;;;;;4.30;3.25;;;22.70;33.90;;;;;;6130088;28;80556;-78
2022/03/10 05:09:32;;;;;;;6.70;3.58;;;22.70;33.60;;;;;;6131608;28;81620;-64
2022/03/10 05:12:33;;;;;;;6.60;3.75;;;22.70;33.50;;;;;;6133269;28;80691;-66
2022/03/10 05:15:33;;;;;;;4.25;3.33;;;22.70;33.20;;;;;;6120157;28;80912;-75
2022/03/10 05:18:34;;;;;;;5.45;3.60;;;22.80;32.90;;;;;;6143523;28;80572;-74
2022/03/10 05:21:35;;;;;;;4.65;3.28;;;22.80;32.90;;;;;;6135374;28;80483;-72
2022/03/10 05:24:35;;;;;;;7.03;3.53;;;22.90;33.70;;;;;;6127235;28;80544;-73
2022/03/10 05:27:36;;;;;;;7.57;3.67;;;22.90;34.10;;;;;;6131030;28;80467;-75
2022/03/10 05:30:36;;;;;;;5.45;3.47;;;22.90;34.40;;;;;;6126317;28;80354;-73
2022/03/10 05:33:37;;;;;;;6.45;3.53;;;22.90;34.50;;;;;;6122759;28;82094;-73
2022/03/10 05:36:38;;;;;;;5.95;3.80;;;22.90;34.70;;;;;;6129670;28;80862;-73
2022/03/10 05:39:38;;;;;;;8.02;4.13;;;22.90;34.60;;;;;;6119728;28;80641;-69
2022/03/10 05:42:39;;;;;;;9.32;4.10;;;23.00;34.30;;;;;;6132047;28;80718;-70
2022/03/10 05:45:39;;;;;;;6.45;3.40;;;23.00;34.20;;;;;;6131078;28;86108;-70
2022/03/10 05:48:40;;;;;;;7.13;3.58;;;22.90;33.90;;;;;;6141324;28;80221;-69
2022/03/10 05:51:40;;;;;;;9.82;4.00;;;22.90;33.60;;;;;;6130721;28;80124;-71
2022/03/10 05:54:41;;;;;;;7.18;3.70;;;22.90;33.40;;;;;;6136247;28;80588;-71
2022/03/10 05:57:42;;;;;;;7.30;4.05;;;22.90;33.30;;;;;;6131261;28;80382;-70
2022/03/10 06:00:43;;;;;;;11.77;3.72;;;22.90;33.50;;;;;;6121967;28;80897;-69
2022/03/10 06:03:44;;;;;;;18.08;4.28;;;23.00;34.00;;;;;;6123367;28;80371;-69
2022/03/10 06:06:44;;;;;;;7.22;4.07;;;23.00;34.20;;;;;;6133310;28;80470;-67
2022/03/10 06:09:45;;;;;;;13.65;3.72;;;23.00;34.20;;;;;;6133819;28;80533;-69
2022/03/10 06:12:46;;;;;;;6.68;3.58;;;23.10;34.30;;;;;;6125792;28;80469;-68
2022/03/10 06:15:46;;;;;;;13.63;3.97;;;23.10;33.90;;;;;;6121413;28;81571;-68
2022/03/10 06:18:47;;;;;;;7.93;3.65;;;23.10;33.50;;;;;;6128708;28;80627;-70
2022/03/10 06:21:47;;;;;;;7.28;3.50;;;23.10;33.40;;;;;;6131827;28;81609;-65
2022/03/10 06:24:48;;;;;;;6.30;3.63;;;23.00;32.60;;;;;;6131828;28;80705;-76
2022/03/10 06:27:48;;;;;;;7.15;4.03;;;23.00;32.40;;;;;;6130677;28;80543;-64
2022/03/10 06:30:49;;;;;;;8.07;3.83;;;23.00;32.30;;;;;;6132870;28;80682;-75
2022/03/10 06:33:49;;;;;;;9.35;3.83;;;23.00;32.40;;;;;;6132856;28;80218;-73
2022/03/10 06:36:51;;;;;;;6.07;3.72;;;23.00;32.80;;;;;;6132528;28;80929;-74
2022/03/10 06:39:52;;;;;;;5.05;3.08;;;23.00;33.10;;;;;;6133718;28;80263;-76
2022/03/10 06:42:53;;;;;;;7.97;3.33;;;23.10;33.30;;;;;;6129347;28;80454;-79
2022/03/10 06:45:53;;;;;;;9.65;3.88;;;23.10;33.10;;;;;;6129786;28;80805;-80
2022/03/10 06:48:54;;;;;;;6.45;3.17;;;23.00;32.70;;;;;;6145345;28;80525;-79
2022/03/10 06:51:54;;;;;;;4.72;3.13;;;23.00;32.40;;;;;;6133746;28;81643;-77
2022/03/10 06:54:55;;;;;;;4.90;3.42;;;23.00;32.20;;;;;;6140159;28;80673;-77
2022/03/10 06:57:55;;;;;;;6.15;3.08;;;23.00;32.20;;;;;;6134515;28;80278;-77
2022/03/10 07:00:56;;;;;;;5.63;3.47;;;23.00;31.80;;;;;;6135462;28;80534;-82
2022/03/10 07:03:57;;;;;;;6.43;3.63;;;23.00;31.70;;;;;;6145939;28;80587;-80
2022/03/10 07:06:57;;;;;;;4.60;3.40;;;23.00;31.70;;;;;;6136782;28;81466;-80
2022/03/10 07:09:58;;;;;;;6.13;3.53;;;23.00;32.00;;;;;;6134694;28;80921;-79
2022/03/10 07:12:59;;;;;;;7.47;3.45;;;22.90;31.30;;;;;;6139692;28;80381;-79
2022/03/10 07:15:59;;;;;;;10.48;3.42;;;22.90;31.10;;;;;;6135765;28;80796;-81
2022/03/10 07:19:00;;;;;;;5.05;3.38;;;22.90;31.30;;;;;;6139682;28;80478;-77
2022/03/10 07:22:00;;;;;;;6.43;3.80;;;22.90;31.00;;;;;;6135437;28;82289;-81
2022/03/10 07:25:01;;;;;;;6.40;3.90;;;22.90;30.70;;;;;;6142928;28;80978;-79
2022/03/10 07:28:01;;;;;;;5.97;3.03;;;22.90;30.60;;;;;;6142511;28;80522;-78
2022/03/10 07:31:02;;;;;;;6.43;3.55;;;22.90;30.80;;;;;;6135353;28;81763;-68
2022/03/10 07:34:02;;;;;;;5.43;3.45;;;22.90;31.50;;;;;;6137022;28;80637;-68
2022/03/10 07:37:03;;;;;;;8.50;4.13;;;22.90;31.50;;;;;;6131546;28;83744;-61
2022/03/10 07:40:03;;;;;;;4.78;3.42;;;22.90;31.50;;;;;;6123484;28;83259;-71
2022/03/10 07:43:05;;;;;;;5.90;3.63;;;22.90;31.20;;;;;;6132419;28;80835;-68
2022/03/10 07:46:06;;;;;;;6.53;3.78;;;23.00;31.20;;;;;;6119007;28;80595;-69
2022/03/10 07:49:08;;;;;;;7.93;4.25;;;22.90;30.80;;;;;;6137135;28;80469;-71
2022/03/10 07:52:09;;;;;;;7.30;3.65;;;22.90;30.40;;;;;;6134129;28;80163;-71
2022/03/10 07:55:13;;;;;;;6.32;3.75;;;22.90;30.30;;;;;;6145264;28;84314;-71
2022/03/10 07:58:13;;;;;;;6.50;3.90;;;22.90;30.00;;;;;;6134357;28;81390;-69
2022/03/10 08:01:14;;;;;;;6.00;4.03;;;22.90;30.00;;;;;;6133783;28;82131;-68
2022/03/10 08:04:14;;;;;;;4.53;3.30;;;23.00;29.90;;;;;;6135273;28;81148;-69
2022/03/10 08:07:15;;;;;;;6.30;3.72;;;23.00;30.30;;;;;;6138834;28;80457;-69
2022/03/10 08:10:15;;;;;;;7.05;3.70;;;23.00;30.20;;;;;;6131276;28;80445;-70
2022/03/10 08:13:17;;;;;;;6.80;3.83;;;23.00;30.30;;;;;;6116408;28;82195;-74
2022/03/10 08:16:18;;;;;;;7.40;4.00;;;22.90;28.80;;;;;;6125509;28;81094;-72
2022/03/10 08:19:19;;;;;;;6.55;3.75;;;22.90;28.50;;;;;;6133750;28;80486;-74
2022/03/10 08:22:19;;;;;;;4.68;3.47;;;22.90;28.60;;;;;;6123342;28;80599;-73
2022/03/10 08:25:20;;;;;;;6.57;3.95;;;22.90;29.60;;;;;;6136328;28;80383;-71
2022/03/10 08:28:20;;;;;;;5.72;3.83;;;22.90;28.70;;;;;;6134212;28;81112;-62
2022/03/10 08:31:21;;;;;;;7.00;3.92;;;23.00;28.40;;;;;;6133803;28;81737;-62
2022/03/10 08:34:22;;;;;;;3.95;3.17;;;23.00;28.40;;;;;;6134369;28;80784;-61
2022/03/10 08:37:23;;;;;;;5.57;3.60;;;23.10;28.20;;;;;;6134424;28;81149;-63
2022/03/10 08:40:23;;;;;;;4.82;3.30;;;23.20;28.40;;;;;;6133962;28;80307;-61
2022/03/10 08:43:28;;;;;;;7.05;3.60;;;23.40;28.50;;;;;;6133436;28;80613;-62
2022/03/10 08:46:29;;;;;;;6.07;3.30;;;23.50;28.60;;;;;;6123757;28;80351;-66
2022/03/10 08:49:29;;;;;;;5.13;3.28;;;23.50;28.50;;;;;;6127106;28;80860;-76
2022/03/10 08:52:30;;;;;;;5.95;2.88;;;23.60;29.00;;;;;;6133377;28;82028;-73
2022/03/10 08:55:30;;;;;;;4.20;2.88;;;23.70;29.40;;;;;;6139042;28;81470;-68
2022/03/10 08:58:31;;;;;;;6.55;3.30;;;23.70;29.40;;;;;;6135475;28;80818;-69
2022/03/10 09:01:31;;;;;;;4.13;3.00;;;23.80;29.50;;;;;;6131330;28;81979;-71
2022/03/10 09:04:32;;;;;;;5.68;3.25;;;23.80;29.50;;;;;;6148691;28;80804;-69
2022/03/10 09:07:32;;;;;;;4.88;3.25;;;23.90;29.50;;;;;;6145472;28;82192;-68
2022/03/10 09:10:33;;;;;;;4.50;2.60;;;23.90;29.40;;;;;;6148299;28;80401;-76
2022/03/10 09:13:34;;;;;;;6.65;3.08;;;23.90;29.20;;;;;;6134580;28;81567;-62
2022/03/10 09:16:34;;;;;;;5.20;2.92;;;24.00;29.60;;;;;;6134925;28;80597;-69
2022/03/10 09:19:35;;;;;;;6.32;3.08;;;24.00;29.50;;;;;;6134313;28;80803;-69
2022/03/10 09:22:35;;;;;;;4.25;2.63;;;24.00;29.70;;;;;;6135855;28;80348;-69
2022/03/10 09:25:36;;;;;;;5.80;3.13;;;24.00;29.90;;;;;;6134269;28;80425;-68
2022/03/10 09:28:36;;;;;;;4.07;2.80;;;23.90;30.00;;;;;;6124390;28;80522;-69
2022/03/10 09:31:37;;;;;;;5.47;3.10;;;23.90;30.00;;;;;;6123135;28;80600;-68
2022/03/10 09:34:37;;;;;;;7.28;2.55;;;23.90;30.00;;;;;;6137590;28;82233;-68
2022/03/10 09:37:38;;;;;;;3.22;2.40;;;23.90;30.00;;;;;;6135151;28;80328;-69
2022/03/10 09:40:39;;;;;;;6.10;2.55;;;23.90;30.00;;;;;;6134887;28;81133;-71
2022/03/10 09:43:39;;;;;;;3.70;2.50;;;23.90;29.90;;;;;;6137370;28;80508;-68
2022/03/10 09:46:40;;;;;;;3.75;2.50;;;23.90;29.90;;;;;;6140369;28;81307;-68
2022/03/10 09:49:40;;;;;;;3.60;2.65;;;23.90;29.90;;;;;;6149168;28;80323;-71
2022/03/10 09:52:41;;;;;;;4.70;2.92;;;23.80;30.00;;;;;;6138749;28;80883;-68
2022/03/10 09:55:42;;;;;;;3.65;2.60;;;23.80;29.90;;;;;;6136269;28;80828;-68
2022/03/10 09:58:42;;;;;;;4.10;2.45;;;23.80;29.90;;;;;;6129301;28;80922;-66
2022/03/10 10:01:43;;;;;;;3.97;2.47;;;23.70;29.70;;;;;;6122802;28;80841;-75
2022/03/10 10:04:44;;;;;;;3.22;2.45;;;23.70;29.80;;;;;;6132144;28;80079;-71
2022/03/10 10:07:45;;;;;;;4.15;2.67;;;23.70;29.80;;;;;;6134842;28;81171;-67
2022/03/10 10:10:45;;;;;;;3.00;2.70;;;23.80;29.60;;;;;;6145582;28;81867;-69
2022/03/10 10:13:47;;;;;;;5.28;3.00;;;23.80;29.80;;;;;;6130937;28;81341;-68
2022/03/10 10:16:48;;;;;;;3.33;2.22;;;23.80;29.90;;;;;;6121415;28;81755;-70
2022/03/10 10:19:48;;;;;;;3.78;2.70;;;23.80;29.80;;;;;;6117920;28;80928;-64
2022/03/10 10:22:51;;;;;;;5.45;2.25;;;23.80;30.00;;;;;;6120217;28;80462;-69
2022/03/10 10:25:51;;;;;;;5.55;2.53;;;23.80;29.80;;;;;;6122263;28;80880;-68
2022/03/10 10:28:52;;;;;;;4.07;2.45;;;23.80;29.80;;;;;;6129420;28;80662;-63
2022/03/10 10:31:52;;;;;;;3.53;2.65;;;23.80;29.80;;;;;;6131717;28;80221;-63
2022/03/10 10:34:53;;;;;;;3.90;2.72;;;23.90;29.80;;;;;;6126975;28;80786;-65
2022/03/10 10:37:54;;;;;;;3.60;2.72;;;23.90;29.60;;;;;;6132841;28;82469;-63
2022/03/10 10:40:55;;;;;;;4.15;2.55;;;23.90;30.00;;;;;;6131835;28;81478;-62
2022/03/10 10:43:55;;;;;;;5.10;2.78;;;23.90;30.00;;;;;;6129355;28;80963;-69
2022/03/10 10:46:58;;;;;;;3.60;2.55;;;23.90;29.70;;;;;;6135140;28;80435;-68
2022/03/10 10:49:59;;;;;;;3.30;2.80;;;23.90;29.80;;;;;;6136546;28;80250;-69
2022/03/10 10:52:59;;;;;;;4.25;2.47;;;23.90;29.90;;;;;;6132943;28;80663;-68
2022/03/10 10:56:00;;;;;;;3.67;2.58;;;23.90;29.80;;;;;;6121278;28;81561;-68
2022/03/10 10:59:02;;;;;;;5.65;2.70;;;23.80;29.70;;;;;;6125765;28;80968;-69
2022/03/10 11:02:02;;;;;;;3.58;2.65;;;23.80;29.70;;;;;;6127860;28;80587;-68
2022/03/10 11:05:03;;;;;;;4.43;2.42;;;23.80;29.50;;;;;;6133681;28;80801;-68
2022/03/10 11:08:04;;;;;;;4.30;2.70;;;23.80;29.60;;;;;;6132230;28;80302;-68
2022/03/10 11:11:04;;;;;;;4.93;2.15;;;23.70;29.60;;;;;;6131369;28;81504;-67
2022/03/10 11:14:05;;;;;;;5.80;3.20;;;23.70;29.60;;;;;;6135847;28;80372;-69
2022/03/10 11:17:05;;;;;;;4.10;2.67;;;23.70;29.50;;;;;;6142781;28;80424;-68
2022/03/10 11:20:06;;;;;;;3.25;2.33;;;23.60;29.60;;;;;;6136339;28;80513;-67
2022/03/10 11:23:06;;;;;;;3.92;2.50;;;23.60;29.60;;;;;;6144121;28;80809;-64
2022/03/10 11:26:07;;;;;;;3.15;2.58;;;23.60;29.40;;;;;;6136387;28;81239;-71
2022/03/10 11:29:08;;;;;;;4.28;2.80;;;23.60;29.90;;;;;;6131586;28;80873;-68
2022/03/10 11:32:08;;;;;;;162.68;60.80;;;23.60;29.70;;;;;;6133289;28;81697;-72
2022/03/10 11:35:09;;;;;;;444.02;173.52;;;23.60;29.70;;;;;;6130925;28;83095;-72
2022/03/10 11:38:10;;;;;;;338.23;134.10;;;23.60;29.60;;;;;;6132339;28;86388;-71
2022/03/10 11:41:10;;;;;;;212.25;79.80;;;23.70;30.00;;;;;;6121397;28;85340;-75
2022/03/10 11:44:11;;;;;;;275.15;116.05;;;23.70;29.80;;;;;;6131061;28;86156;-74
2022/03/10 11:47:12;;;;;;;266.85;109.88;;;23.70;29.80;;;;;;6129978;28;86034;-74
2022/03/10 11:50:12;;;;;;;239.70;99.55;;;23.80;29.90;;;;;;6123102;28;85759;-73
2022/03/10 11:53:13;;;;;;;215.48;92.82;;;23.80;30.00;;;;;;6138396;28;85570;-71
2022/03/10 11:56:13;;;;;;;238.75;99.47;;;23.90;30.70;;;;;;6132738;28;84196;-68
2022/03/10 11:59:14;;;;;;;228.60;102.30;;;23.90;29.90;;;;;;6132928;28;86643;-72
2022/03/10 12:02:14;;;;;;;246.63;110.05;;;24.00;29.90;;;;;;6125773;28;89873;-70
2022/03/10 12:05:15;;;;;;;218.82;91.85;;;24.00;30.00;;;;;;6128980;28;85879;-72
2022/03/10 12:08:15;;;;;;;167.95;75.32;;;24.00;30.20;;;;;;6130349;28;84141;-73
2022/03/10 12:11:16;;;;;;;156.73;66.15;;;24.00;30.20;;;;;;6134373;28;84076;-69
2022/03/10 12:14:16;;;;;;;137.85;59.58;;;24.00;30.40;;;;;;6137717;28;83246;-68
2022/03/10 12:17:17;;;;;;;109.47;46.67;;;24.00;30.20;;;;;;6135678;28;83930;-69
2022/03/10 12:20:17;;;;;;;85.95;39.25;;;24.00;30.20;;;;;;6130743;28;83460;-67
2022/03/10 12:23:19;;;;;;;77.22;29.30;;;24.00;29.50;;;;;;6130482;28;82858;-66
2022/03/10 12:26:20;;;;;;;69.13;27.17;;;24.00;29.70;;;;;;6136837;28;84075;-67
2022/03/10 12:29:20;;;;;;;50.08;21.02;;;24.00;30.10;;;;;;6131122;28;83390;-70
2022/03/10 12:32:21;;;;;;;37.70;16.70;;;24.00;29.70;;;;;;6133128;28;83457;-68
2022/03/10 12:35:22;;;;;;;28.70;13.65;;;24.00;30.50;;;;;;6146106;28;83325;-66
2022/03/10 12:38:23;;;;;;;31.80;12.13;;;24.10;30.30;;;;;;6136410;28;83244;-65
2022/03/10 12:41:23;;;;;;;26.55;12.00;;;24.10;30.00;;;;;;6149781;28;83293;-65
2022/03/10 12:44:24;;;;;;;19.13;8.93;;;24.10;30.20;;;;;;6130216;28;83031;-66
2022/03/10 12:47:26;;;;;;;13.05;7.47;;;24.10;31.20;;;;;;6125841;28;85151;-66
2022/03/10 12:50:26;;;;;;;13.05;6.22;;;24.10;30.50;;;;;;6124528;28;82121;-66
2022/03/10 12:53:27;;;;;;;13.38;5.68;;;24.10;30.30;;;;;;6130978;28;80547;-69
2022/03/10 12:56:28;;;;;;;10.98;5.68;;;24.20;30.60;;;;;;6131071;28;80639;-68
2022/03/10 12:59:28;;;;;;;8.52;4.70;;;24.20;30.60;;;;;;6131122;28;81284;-69
2022/03/10 13:02:29;;;;;;;9.98;4.70;;;24.20;30.50;;;;;;6135206;28;80693;-65
2022/03/10 13:05:31;;;;;;;4.47;3.33;;;24.20;30.10;;;;;;6143249;28;80697;-69
2022/03/10 13:08:31;;;;;;;5.38;3.47;;;24.20;30.10;;;;;;6144260;28;80408;-64
2022/03/10 13:11:33;;;;;;;9.45;3.85;;;24.30;30.20;;;;;;6134217;28;80549;-67
2022/03/10 13:14:34;;;;;;;7.97;3.53;;;24.30;30.00;;;;;;6125361;28;80508;-67
2022/03/10 13:17:36;;;;;;;9.20;3.45;;;24.30;30.30;;;;;;6148851;28;80652;-67
2022/03/10 13:20:37;;;;;;;4.85;3.20;;;24.30;30.40;;;;;;6137353;28;80646;-68
2022/03/10 13:23:38;;;;;;;3.97;2.50;;;24.30;30.20;;;;;;6124771;28;81050;-68
2022/03/10 13:26:39;;;;;;;6.95;2.28;;;24.30;30.60;;;;;;6135788;28;81175;-69
2022/03/10 13:29:39;;;;;;;3.63;2.60;;;24.30;30.80;;;;;;6132720;28;82353;-62
2022/03/10 13:32:42;;;;;;;6.78;2.83;;;24.30;30.70;;;;;;6120555;28;81412;-61
2022/03/10 13:35:43;;;;;;;7.55;3.88;;;24.30;30.60;;;;;;6133902;28;80342;-64
2022/03/10 13:38:44;;;;;;;7.80;5.45;;;24.40;30.50;;;;;;6134534;28;80593;-67
2022/03/10 13:41:45;;;;;;;6.03;3.83;;;24.40;30.20;;;;;;6136803;28;81745;-71
2022/03/10 13:44:45;;;;;;;10.82;5.00;;;24.40;30.50;;;;;;6141804;28;81987;-69
2022/03/10 13:47:46;;;;;;;7.57;5.20;;;24.50;30.80;;;;;;6127153;28;80840;-66
2022/03/10 13:50:46;;;;;;;4.50;3.78;;;24.50;30.90;;;;;;6139916;28;80408;-69
2022/03/10 13:53:47;;;;;;;7.03;4.75;;;24.50;30.70;;;;;;6134674;28;80777;-68
2022/03/10 13:56:53;;;;;;;5.10;3.53;;;24.60;30.00;;;;;;6122099;28;80419;-68
2022/03/10 13:59:53;;;;;;;5.57;3.50;;;24.50;30.50;;;;;;6134379;28;83382;-61
2022/03/10 14:02:54;;;;;;;3.95;3.05;;;24.50;30.30;;;;;;6128456;28;80593;-66
2022/03/10 14:05:55;;;;;;;4.28;2.72;;;24.50;29.70;;;;;;6125896;28;80132;-67
2022/03/10 14:08:55;;;;;;;3.72;2.90;;;24.50;30.00;;;;;;6142709;28;80361;-64
2022/03/10 14:11:56;;;;;;;7.05;3.20;;;24.50;29.70;;;;;;6141502;28;81721;-65
2022/03/10 14:14:56;;;;;;;4.82;2.85;;;24.40;29.40;;;;;;6133193;28;80853;-67
2022/03/10 14:17:58;;;;;;;5.43;2.75;;;24.40;29.70;;;;;;6134302;28;82117;-67
2022/03/10 14:20:58;;;;;;;3.42;2.90;;;24.40;29.50;;;;;;6144613;28;81536;-63
2022/03/10 14:23:59;;;;;;;4.38;2.78;;;24.30;29.60;;;;;;6138839;28;81446;-64
2022/03/10 14:26:59;;;;;;;3.95;2.47;;;24.40;29.40;;;;;;6133167;28;80310;-63
2022/03/10 14:30:00;;;;;;;3.25;2.55;;;24.30;29.30;;;;;;6138544;28;80491;-63
2022/03/10 14:33:00;;;;;;;4.32;2.97;;;24.30;29.10;;;;;;6145418;28;80321;-66
2022/03/10 14:36:01;;;;;;;4.10;2.90;;;24.30;28.90;;;;;;6142046;28;81858;-64
2022/03/10 14:39:01;;;;;;;3.80;2.40;;;24.20;29.20;;;;;;6142598;28;80840;-59
2022/03/10 14:42:02;;;;;;;4.00;2.63;;;24.20;28.90;;;;;;6140799;28;80748;-64
2022/03/10 14:45:03;;;;;;;3.85;2.80;;;24.20;28.60;;;;;;6133787;28;81083;-64
2022/03/10 14:48:03;;;;;;;4.35;2.78;;;24.10;28.50;;;;;;6145987;28;81725;-67
2022/03/10 14:51:04;;;;;;;6.07;3.05;;;24.10;28.70;;;;;;6132471;28;82061;-62
2022/03/10 14:54:04;;;;;;;7.95;3.00;;;24.10;28.70;;;;;;6138174;28;87775;-63
2022/03/10 14:57:05;;;;;;;8.25;3.28;;;24.10;28.70;;;;;;6129255;28;80244;-64
2022/03/10 15:00:08;;;;;;;3.33;2.47;;;24.10;28.60;;;;;;6138468;28;80671;-66
2022/03/10 15:03:09;;;;;;;6.63;2.78;;;24.10;28.70;;;;;;6131080;28;80338;-66
2022/03/10 15:06:12;;;;;;;5.85;2.80;;;24.10;28.90;;;;;;6130659;28;81584;-65
2022/03/10 15:09:13;;;;;;;8.95;2.80;;;24.10;28.80;;;;;;6134025;28;80497;-64
2022/03/10 15:12:14;;;;;;;5.30;2.72;;;24.10;29.30;;;;;;6138490;28;80424;-64
2022/03/10 15:15:15;;;;;;;7.47;3.20;;;24.10;29.40;;;;;;6137002;28;82113;-64
2022/03/10 15:18:15;;;;;;;3.72;2.65;;;24.00;29.30;;;;;;6135841;28;80391;-65
2022/03/10 15:21:16;;;;;;;5.93;2.85;;;24.00;29.20;;;;;;6140181;28;81772;-64
2022/03/10 15:24:17;;;;;;;6.30;2.90;;;24.00;29.30;;;;;;6137543;28;80575;-64
2022/03/10 15:27:17;;;;;;;4.80;2.78;;;24.00;29.30;;;;;;6142925;28;80280;-64
2022/03/10 15:30:18;;;;;;;5.38;2.70;;;23.90;29.40;;;;;;6125619;28;81282;-64
2022/03/10 15:33:18;;;;;;;7.45;2.80;;;23.90;29.00;;;;;;6137963;28;80574;-62
2022/03/10 15:36:19;;;;;;;8.73;2.95;;;23.90;29.50;;;;;;6138400;28;81845;-63
2022/03/10 15:39:20;;;;;;;9.48;3.13;;;23.90;29.10;;;;;;6137155;28;81037;-63
2022/03/10 15:42:20;;;;;;;4.93;2.70;;;23.90;29.50;;;;;;6117885;28;80585;-63